sensor_id;sensor_type;location;lat;lon;timestamp;P1;durP1;ratioP1;P2;durP2;ratioP2
54171;SDS011;40076;52.354;4.970;2024-02-26T00:01:41;7.57;;;5.57;;
54171;SDS011;40076;52.354;4.970;2024-02-26T00:04:08;8.25;;;5.28;;
54171;SDS011;40076;52.354;4.970;2024-02-26T00:06:34;9.48;;;5.43;;
54171;SDS011;40076;52.354;4.970;2024-02-26T00:08:59;8.05;;;5.10;;
54171;SDS011;40076;52.354;4.970;2024-02-26T00:11:25;7.75;;;5.20;;
54171;SDS011;40076;52.354;4.970;2024-02-26T00:13:51;10.75;;;5.32;;
54171;SDS011;40076;52.354;4.970;2024-02-26T00:16:16;8.55;;;6.03;;
54171;SDS011;40076;52.354;4.970;2024-02-26T00:18:44;11.93;;;6.40;;
54171;SDS011;40076;52.354;4.970;2024-02-26T00:21:11;9.73;;;6.72;;
54171;SDS011;40076;52.354;4.970;2024-02-26T00:23:37;9.68;;;6.97;;
54171;SDS011;40076;52.354;4.970;2024-02-26T00:26:02;10.20;;;6.78;;
54171;SDS011;40076;52.354;4.970;2024-02-26T00:28:28;11.70;;;7.15;;
54171;SDS011;40076;52.354;4.970;2024-02-26T00:30:54;11.02;;;7.13;;
54171;SDS011;40076;52.354;4.970;2024-02-26T00:33:21;9.25;;;7.22;;
54171;SDS011;40076;52.354;4.970;2024-02-26T00:35:46;11.40;;;7.90;;
54171;SDS011;40076;52.354;4.970;2024-02-26T00:38:12;11.50;;;7.82;;
54171;SDS011;40076;52.354;4.970;2024-02-26T00:40:37;11.52;;;8.05;;
54171;SDS011;40076;52.354;4.970;2024-02-26T00:43:03;14.57;;;8.00;;
54171;SDS011;40076;52.354;4.970;2024-02-26T00:45:28;9.93;;;7.97;;
54171;SDS011;40076;52.354;4.970;2024-02-26T00:48:01;12.30;;;8.60;;
54171;SDS011;40076;52.354;4.970;2024-02-26T00:50:30;12.90;;;8.77;;
54171;SDS011;40076;52.354;4.970;2024-02-26T00:52:56;14.40;;;9.05;;
54171;SDS011;40076;52.354;4.970;2024-02-26T00:55:21;13.70;;;9.18;;
54171;SDS011;40076;52.354;4.970;2024-02-26T00:57:47;12.60;;;9.77;;
54171;SDS011;40076;52.354;4.970;2024-02-26T01:00:15;11.65;;;8.98;;
54171;SDS011;40076;52.354;4.970;2024-02-26T01:02:41;11.20;;;8.52;;
54171;SDS011;40076;52.354;4.970;2024-02-26T01:05:07;13.82;;;9.30;;
54171;SDS011;40076;52.354;4.970;2024-02-26T01:07:34;11.93;;;8.82;;
54171;SDS011;40076;52.354;4.970;2024-02-26T01:10:03;11.88;;;8.57;;
54171;SDS011;40076;52.354;4.970;2024-02-26T01:12:30;10.55;;;8.45;;
54171;SDS011;40076;52.354;4.970;2024-02-26T01:14:56;13.63;;;8.60;;
54171;SDS011;40076;52.354;4.970;2024-02-26T01:17:22;10.98;;;7.85;;
54171;SDS011;40076;52.354;4.970;2024-02-26T01:19:47;8.60;;;6.55;;
54171;SDS011;40076;52.354;4.970;2024-02-26T01:22:16;11.35;;;7.00;;
54171;SDS011;40076;52.354;4.970;2024-02-26T01:24:41;8.75;;;6.55;;
54171;SDS011;40076;52.354;4.970;2024-02-26T01:27:07;7.88;;;6.50;;
54171;SDS011;40076;52.354;4.970;2024-02-26T01:29:34;10.02;;;6.13;;
54171;SDS011;40076;52.354;4.970;2024-02-26T01:31:59;9.75;;;6.28;;
54171;SDS011;40076;52.354;4.970;2024-02-26T01:34:29;8.20;;;6.10;;
54171;SDS011;40076;52.354;4.970;2024-02-26T01:36:58;10.07;;;6.90;;
54171;SDS011;40076;52.354;4.970;2024-02-26T01:39:24;11.68;;;7.03;;
54171;SDS011;40076;52.354;4.970;2024-02-26T01:41:49;8.35;;;6.63;;
54171;SDS011;40076;52.354;4.970;2024-02-26T01:44:15;9.45;;;7.20;;
54171;SDS011;40076;52.354;4.970;2024-02-26T01:46:40;9.05;;;7.22;;
54171;SDS011;40076;52.354;4.970;2024-02-26T01:49:07;10.27;;;7.13;;
54171;SDS011;40076;52.354;4.970;2024-02-26T01:51:38;9.63;;;6.53;;
54171;SDS011;40076;52.354;4.970;2024-02-26T01:54:06;9.32;;;6.65;;
54171;SDS011;40076;52.354;4.970;2024-02-26T01:56:33;10.63;;;8.07;;
54171;SDS011;40076;52.354;4.970;2024-02-26T01:59:00;10.90;;;7.47;;
54171;SDS011;40076;52.354;4.970;2024-02-26T02:01:27;10.80;;;7.57;;
54171;SDS011;40076;52.354;4.970;2024-02-26T02:03:54;11.98;;;8.38;;
54171;SDS011;40076;52.354;4.970;2024-02-26T02:06:22;12.07;;;8.02;;
54171;SDS011;40076;52.354;4.970;2024-02-26T02:08:48;10.85;;;8.43;;
54171;SDS011;40076;52.354;4.970;2024-02-26T02:11:14;12.35;;;8.70;;
54171;SDS011;40076;52.354;4.970;2024-02-26T02:13:40;11.95;;;8.60;;
54171;SDS011;40076;52.354;4.970;2024-02-26T02:16:06;11.82;;;8.88;;
54171;SDS011;40076;52.354;4.970;2024-02-26T02:18:32;13.48;;;9.23;;
54171;SDS011;40076;52.354;4.970;2024-02-26T02:21:01;11.80;;;9.68;;
54171;SDS011;40076;52.354;4.970;2024-02-26T02:23:29;11.40;;;9.63;;
54171;SDS011;40076;52.354;4.970;2024-02-26T02:25:56;11.90;;;9.13;;
54171;SDS011;40076;52.354;4.970;2024-02-26T02:28:22;13.35;;;9.63;;
54171;SDS011;40076;52.354;4.970;2024-02-26T02:30:50;12.13;;;9.07;;
54171;SDS011;40076;52.354;4.970;2024-02-26T02:33:18;14.23;;;9.85;;
54171;SDS011;40076;52.354;4.970;2024-02-26T02:35:48;12.68;;;10.68;;
54171;SDS011;40076;52.354;4.970;2024-02-26T02:38:15;13.60;;;10.23;;
54171;SDS011;40076;52.354;4.970;2024-02-26T02:40:41;14.05;;;9.95;;
54171;SDS011;40076;52.354;4.970;2024-02-26T02:43:06;13.73;;;9.98;;
54171;SDS011;40076;52.354;4.970;2024-02-26T02:45:32;14.85;;;10.95;;
54171;SDS011;40076;52.354;4.970;2024-02-26T02:47:57;13.93;;;11.13;;
54171;SDS011;40076;52.354;4.970;2024-02-26T02:50:23;16.83;;;11.38;;
54171;SDS011;40076;52.354;4.970;2024-02-26T02:52:48;17.67;;;11.15;;
54171;SDS011;40076;52.354;4.970;2024-02-26T02:55:41;18.83;;;11.50;;
54171;SDS011;40076;52.354;4.970;2024-02-26T02:58:19;17.42;;;12.23;;
54171;SDS011;40076;52.354;4.970;2024-02-26T03:00:45;16.48;;;11.52;;
54171;SDS011;40076;52.354;4.970;2024-02-26T03:03:10;18.40;;;11.73;;
54171;SDS011;40076;52.354;4.970;2024-02-26T03:05:35;18.25;;;12.15;;
54171;SDS011;40076;52.354;4.970;2024-02-26T03:08:01;17.30;;;11.70;;
54171;SDS011;40076;52.354;4.970;2024-02-26T03:10:29;16.88;;;12.30;;
54171;SDS011;40076;52.354;4.970;2024-02-26T03:13:06;17.52;;;11.75;;
54171;SDS011;40076;52.354;4.970;2024-02-26T03:15:52;17.33;;;12.32;;
54171;SDS011;40076;52.354;4.970;2024-02-26T03:18:20;19.25;;;12.35;;
54171;SDS011;40076;52.354;4.970;2024-02-26T03:20:49;16.40;;;12.05;;
54171;SDS011;40076;52.354;4.970;2024-02-26T03:23:14;17.60;;;11.50;;
54171;SDS011;40076;52.354;4.970;2024-02-26T03:25:42;16.60;;;12.20;;
54171;SDS011;40076;52.354;4.970;2024-02-26T03:28:11;19.20;;;12.63;;
54171;SDS011;40076;52.354;4.970;2024-02-26T03:30:36;18.27;;;11.93;;
54171;SDS011;40076;52.354;4.970;2024-02-26T03:33:01;18.27;;;12.38;;
54171;SDS011;40076;52.354;4.970;2024-02-26T03:35:27;17.88;;;12.15;;
54171;SDS011;40076;52.354;4.970;2024-02-26T03:37:53;19.40;;;12.63;;
54171;SDS011;40076;52.354;4.970;2024-02-26T03:40:18;17.17;;;12.45;;
54171;SDS011;40076;52.354;4.970;2024-02-26T03:42:44;18.05;;;12.80;;
54171;SDS011;40076;52.354;4.970;2024-02-26T03:45:12;18.52;;;12.32;;
54171;SDS011;40076;52.354;4.970;2024-02-26T03:47:38;17.42;;;12.65;;
54171;SDS011;40076;52.354;4.970;2024-02-26T03:50:05;16.17;;;11.77;;
54171;SDS011;40076;52.354;4.970;2024-02-26T03:52:31;20.23;;;12.88;;
54171;SDS011;40076;52.354;4.970;2024-02-26T03:54:57;19.63;;;12.82;;
54171;SDS011;40076;52.354;4.970;2024-02-26T03:57:23;18.25;;;12.63;;
54171;SDS011;40076;52.354;4.970;2024-02-26T03:59:48;18.73;;;12.93;;
54171;SDS011;40076;52.354;4.970;2024-02-26T04:02:14;20.00;;;13.30;;
54171;SDS011;40076;52.354;4.970;2024-02-26T04:04:39;18.35;;;12.82;;
54171;SDS011;40076;52.354;4.970;2024-02-26T04:07:05;18.70;;;12.88;;
54171;SDS011;40076;52.354;4.970;2024-02-26T04:09:33;19.20;;;12.40;;
54171;SDS011;40076;52.354;4.970;2024-02-26T04:12:01;19.40;;;13.27;;
54171;SDS011;40076;52.354;4.970;2024-02-26T04:14:27;18.60;;;12.85;;
54171;SDS011;40076;52.354;4.970;2024-02-26T04:16:52;18.48;;;12.57;;
54171;SDS011;40076;52.354;4.970;2024-02-26T04:19:19;18.20;;;12.43;;
54171;SDS011;40076;52.354;4.970;2024-02-26T04:21:45;19.55;;;13.32;;
54171;SDS011;40076;52.354;4.970;2024-02-26T04:24:10;18.83;;;13.77;;
54171;SDS011;40076;52.354;4.970;2024-02-26T04:26:36;21.13;;;13.73;;
54171;SDS011;40076;52.354;4.970;2024-02-26T04:29:02;18.92;;;12.98;;
54171;SDS011;40076;52.354;4.970;2024-02-26T04:31:27;18.88;;;11.77;;
54171;SDS011;40076;52.354;4.970;2024-02-26T04:33:53;21.50;;;13.32;;
54171;SDS011;40076;52.354;4.970;2024-02-26T04:36:18;21.40;;;13.55;;
54171;SDS011;40076;52.354;4.970;2024-02-26T04:38:44;21.20;;;13.57;;
54171;SDS011;40076;52.354;4.970;2024-02-26T04:41:09;23.17;;;14.32;;
54171;SDS011;40076;52.354;4.970;2024-02-26T04:43:35;22.38;;;13.68;;
54171;SDS011;40076;52.354;4.970;2024-02-26T04:46:06;23.13;;;14.85;;
54171;SDS011;40076;52.354;4.970;2024-02-26T04:48:38;22.02;;;14.43;;
54171;SDS011;40076;52.354;4.970;2024-02-26T04:51:04;23.45;;;14.90;;
54171;SDS011;40076;52.354;4.970;2024-02-26T04:53:30;25.45;;;16.20;;
54171;SDS011;40076;52.354;4.970;2024-02-26T04:55:56;23.90;;;14.65;;
54171;SDS011;40076;52.354;4.970;2024-02-26T04:58:21;22.88;;;14.70;;
54171;SDS011;40076;52.354;4.970;2024-02-26T05:00:47;25.10;;;16.13;;
54171;SDS011;40076;52.354;4.970;2024-02-26T05:03:12;23.30;;;15.57;;
54171;SDS011;40076;52.354;4.970;2024-02-26T05:05:40;23.67;;;16.25;;
54171;SDS011;40076;52.354;4.970;2024-02-26T05:08:07;22.63;;;15.02;;
54171;SDS011;40076;52.354;4.970;2024-02-26T05:10:33;27.25;;;16.75;;
54171;SDS011;40076;52.354;4.970;2024-02-26T05:12:59;24.73;;;16.58;;
54171;SDS011;40076;52.354;4.970;2024-02-26T05:15:25;25.23;;;16.77;;
54171;SDS011;40076;52.354;4.970;2024-02-26T05:17:51;25.88;;;17.00;;
54171;SDS011;40076;52.354;4.970;2024-02-26T05:20:19;26.73;;;16.90;;
54171;SDS011;40076;52.354;4.970;2024-02-26T05:22:56;25.00;;;16.42;;
54171;SDS011;40076;52.354;4.970;2024-02-26T05:25:23;25.65;;;17.52;;
54171;SDS011;40076;52.354;4.970;2024-02-26T05:27:49;28.10;;;18.23;;
54171;SDS011;40076;52.354;4.970;2024-02-26T05:30:14;26.00;;;17.67;;
54171;SDS011;40076;52.354;4.970;2024-02-26T05:32:40;25.58;;;17.65;;
54171;SDS011;40076;52.354;4.970;2024-02-26T05:35:06;28.50;;;17.73;;
54171;SDS011;40076;52.354;4.970;2024-02-26T05:37:34;27.20;;;17.98;;
54171;SDS011;40076;52.354;4.970;2024-02-26T05:40:00;26.65;;;17.77;;
54171;SDS011;40076;52.354;4.970;2024-02-26T05:42:25;29.88;;;18.02;;
54171;SDS011;40076;52.354;4.970;2024-02-26T05:44:50;30.95;;;19.17;;
54171;SDS011;40076;52.354;4.970;2024-02-26T05:47:16;28.02;;;18.98;;
54171;SDS011;40076;52.354;4.970;2024-02-26T05:49:46;31.42;;;19.70;;
54171;SDS011;40076;52.354;4.970;2024-02-26T05:52:17;28.30;;;17.50;;
54171;SDS011;40076;52.354;4.970;2024-02-26T05:54:42;28.45;;;19.20;;
54171;SDS011;40076;52.354;4.970;2024-02-26T05:57:07;24.75;;;17.10;;
54171;SDS011;40076;52.354;4.970;2024-02-26T05:59:33;29.42;;;17.90;;
54171;SDS011;40076;52.354;4.970;2024-02-26T06:01:58;23.60;;;16.42;;
54171;SDS011;40076;52.354;4.970;2024-02-26T06:04:24;25.42;;;17.08;;
54171;SDS011;40076;52.354;4.970;2024-02-26T06:06:49;25.02;;;17.33;;
54171;SDS011;40076;52.354;4.970;2024-02-26T06:09:17;26.42;;;16.00;;
54171;SDS011;40076;52.354;4.970;2024-02-26T06:11:42;23.92;;;16.25;;
54171;SDS011;40076;52.354;4.970;2024-02-26T06:14:08;22.13;;;15.70;;
54171;SDS011;40076;52.354;4.970;2024-02-26T06:16:34;21.10;;;15.38;;
54171;SDS011;40076;52.354;4.970;2024-02-26T06:19:05;21.45;;;14.07;;
54171;SDS011;40076;52.354;4.970;2024-02-26T06:21:31;23.13;;;14.40;;
54171;SDS011;40076;52.354;4.970;2024-02-26T06:23:56;20.98;;;13.77;;
54171;SDS011;40076;52.354;4.970;2024-02-26T06:26:21;21.45;;;14.57;;
54171;SDS011;40076;52.354;4.970;2024-02-26T06:28:47;20.13;;;13.18;;
54171;SDS011;40076;52.354;4.970;2024-02-26T06:31:12;21.65;;;12.65;;
54171;SDS011;40076;52.354;4.970;2024-02-26T06:33:38;19.02;;;13.02;;
54171;SDS011;40076;52.354;4.970;2024-02-26T06:36:03;18.42;;;12.60;;
54171;SDS011;40076;52.354;4.970;2024-02-26T06:38:29;18.10;;;12.55;;
54171;SDS011;40076;52.354;4.970;2024-02-26T06:40:54;22.45;;;12.55;;
54171;SDS011;40076;52.354;4.970;2024-02-26T06:43:20;16.73;;;11.57;;
54171;SDS011;40076;52.354;4.970;2024-02-26T06:45:45;15.30;;;10.52;;
54171;SDS011;40076;52.354;4.970;2024-02-26T06:48:10;16.23;;;11.25;;
54171;SDS011;40076;52.354;4.970;2024-02-26T06:50:36;15.68;;;10.73;;
54171;SDS011;40076;52.354;4.970;2024-02-26T06:53:01;16.60;;;10.93;;
54171;SDS011;40076;52.354;4.970;2024-02-26T06:55:26;13.23;;;9.30;;
54171;SDS011;40076;52.354;4.970;2024-02-26T06:57:52;14.93;;;9.93;;
54171;SDS011;40076;52.354;4.970;2024-02-26T07:00:17;13.68;;;9.45;;
54171;SDS011;40076;52.354;4.970;2024-02-26T07:02:43;15.80;;;9.60;;
54171;SDS011;40076;52.354;4.970;2024-02-26T07:05:08;14.35;;;8.77;;
54171;SDS011;40076;52.354;4.970;2024-02-26T07:07:34;12.55;;;8.73;;
54171;SDS011;40076;52.354;4.970;2024-02-26T07:10:00;13.18;;;9.07;;
54171;SDS011;40076;52.354;4.970;2024-02-26T07:12:28;11.50;;;7.85;;
54171;SDS011;40076;52.354;4.970;2024-02-26T07:14:56;11.23;;;7.80;;
54171;SDS011;40076;52.354;4.970;2024-02-26T07:17:21;10.13;;;6.95;;
54171;SDS011;40076;52.354;4.970;2024-02-26T07:19:47;11.80;;;7.97;;
54171;SDS011;40076;52.354;4.970;2024-02-26T07:22:12;11.35;;;7.13;;
54171;SDS011;40076;52.354;4.970;2024-02-26T07:24:38;11.23;;;6.95;;
54171;SDS011;40076;52.354;4.970;2024-02-26T07:27:04;11.65;;;6.55;;
54171;SDS011;40076;52.354;4.970;2024-02-26T07:29:29;11.02;;;6.65;;
54171;SDS011;40076;52.354;4.970;2024-02-26T07:31:55;9.43;;;6.15;;
54171;SDS011;40076;52.354;4.970;2024-02-26T07:34:21;10.77;;;5.85;;
54171;SDS011;40076;52.354;4.970;2024-02-26T07:36:52;12.32;;;6.55;;
54171;SDS011;40076;52.354;4.970;2024-02-26T07:39:17;12.25;;;5.72;;
54171;SDS011;40076;52.354;4.970;2024-02-26T07:41:43;11.00;;;5.90;;
54171;SDS011;40076;52.354;4.970;2024-02-26T07:44:11;10.95;;;5.80;;
54171;SDS011;40076;52.354;4.970;2024-02-26T07:46:37;11.82;;;5.85;;
54171;SDS011;40076;52.354;4.970;2024-02-26T07:49:02;8.13;;;5.40;;
54171;SDS011;40076;52.354;4.970;2024-02-26T07:51:30;11.00;;;4.93;;
54171;SDS011;40076;52.354;4.970;2024-02-26T07:53:56;10.43;;;5.35;;
54171;SDS011;40076;52.354;4.970;2024-02-26T07:56:21;12.88;;;6.40;;
54171;SDS011;40076;52.354;4.970;2024-02-26T07:58:46;9.98;;;5.07;;
54171;SDS011;40076;52.354;4.970;2024-02-26T08:01:15;8.10;;;4.93;;
54171;SDS011;40076;52.354;4.970;2024-02-26T08:03:40;9.18;;;5.43;;
54171;SDS011;40076;52.354;4.970;2024-02-26T08:06:05;10.63;;;5.60;;
54171;SDS011;40076;52.354;4.970;2024-02-26T08:08:32;8.25;;;4.80;;
54171;SDS011;40076;52.354;4.970;2024-02-26T08:10:58;11.65;;;5.03;;
54171;SDS011;40076;52.354;4.970;2024-02-26T08:13:23;8.95;;;4.53;;
54171;SDS011;40076;52.354;4.970;2024-02-26T08:15:51;7.13;;;4.45;;
54171;SDS011;40076;52.354;4.970;2024-02-26T08:18:17;8.02;;;4.60;;
54171;SDS011;40076;52.354;4.970;2024-02-26T08:20:45;10.25;;;4.60;;
54171;SDS011;40076;52.354;4.970;2024-02-26T08:23:11;9.45;;;4.20;;
54171;SDS011;40076;52.354;4.970;2024-02-26T08:25:36;8.02;;;3.95;;
54171;SDS011;40076;52.354;4.970;2024-02-26T08:28:02;10.02;;;4.13;;
54171;SDS011;40076;52.354;4.970;2024-02-26T08:30:27;6.90;;;4.35;;
54171;SDS011;40076;52.354;4.970;2024-02-26T08:32:53;6.82;;;4.38;;
54171;SDS011;40076;52.354;4.970;2024-02-26T08:35:18;6.63;;;4.05;;
54171;SDS011;40076;52.354;4.970;2024-02-26T08:37:44;7.28;;;4.47;;
54171;SDS011;40076;52.354;4.970;2024-02-26T08:40:11;7.32;;;4.80;;
54171;SDS011;40076;52.354;4.970;2024-02-26T08:42:39;7.32;;;4.20;;
54171;SDS011;40076;52.354;4.970;2024-02-26T08:45:04;8.10;;;4.13;;
54171;SDS011;40076;52.354;4.970;2024-02-26T08:47:30;6.40;;;4.32;;
54171;SDS011;40076;52.354;4.970;2024-02-26T08:49:56;5.40;;;3.67;;
54171;SDS011;40076;52.354;4.970;2024-02-26T08:52:21;6.00;;;4.22;;
54171;SDS011;40076;52.354;4.970;2024-02-26T08:54:49;7.55;;;4.32;;
54171;SDS011;40076;52.354;4.970;2024-02-26T08:57:15;6.20;;;4.28;;
54171;SDS011;40076;52.354;4.970;2024-02-26T08:59:40;7.88;;;4.40;;
54171;SDS011;40076;52.354;4.970;2024-02-26T09:02:07;7.85;;;4.35;;
54171;SDS011;40076;52.354;4.970;2024-02-26T09:04:34;12.27;;;4.30;;
54171;SDS011;40076;52.354;4.970;2024-02-26T09:07:00;7.43;;;4.28;;
54171;SDS011;40076;52.354;4.970;2024-02-26T09:09:25;7.28;;;4.53;;
54171;SDS011;40076;52.354;4.970;2024-02-26T09:11:51;11.10;;;4.30;;
54171;SDS011;40076;52.354;4.970;2024-02-26T09:14:17;7.68;;;4.65;;
54171;SDS011;40076;52.354;4.970;2024-02-26T09:16:43;8.75;;;4.93;;
54171;SDS011;40076;52.354;4.970;2024-02-26T09:19:08;10.32;;;4.60;;
54171;SDS011;40076;52.354;4.970;2024-02-26T09:21:33;11.13;;;4.50;;
54171;SDS011;40076;52.354;4.970;2024-02-26T09:23:59;8.02;;;4.68;;
54171;SDS011;40076;52.354;4.970;2024-02-26T09:26:24;8.05;;;4.13;;
54171;SDS011;40076;52.354;4.970;2024-02-26T09:28:49;8.23;;;4.50;;
54171;SDS011;40076;52.354;4.970;2024-02-26T09:31:15;6.60;;;4.63;;
54171;SDS011;40076;52.354;4.970;2024-02-26T09:33:42;9.07;;;5.25;;
54171;SDS011;40076;52.354;4.970;2024-02-26T09:36:08;10.55;;;5.28;;
54171;SDS011;40076;52.354;4.970;2024-02-26T09:38:35;9.02;;;4.57;;
54171;SDS011;40076;52.354;4.970;2024-02-26T09:41:03;7.97;;;4.78;;
54171;SDS011;40076;52.354;4.970;2024-02-26T09:43:32;7.88;;;4.18;;
54171;SDS011;40076;52.354;4.970;2024-02-26T09:45:59;7.18;;;4.72;;
54171;SDS011;40076;52.354;4.970;2024-02-26T09:48:25;9.70;;;4.85;;
54171;SDS011;40076;52.354;4.970;2024-02-26T09:50:50;9.50;;;5.38;;
54171;SDS011;40076;52.354;4.970;2024-02-26T09:53:17;11.80;;;5.68;;
54171;SDS011;40076;52.354;4.970;2024-02-26T09:55:43;8.40;;;4.93;;
54171;SDS011;40076;52.354;4.970;2024-02-26T09:58:09;6.30;;;4.28;;
54171;SDS011;40076;52.354;4.970;2024-02-26T10:00:37;7.07;;;4.65;;
54171;SDS011;40076;52.354;4.970;2024-02-26T10:03:04;7.93;;;4.30;;
54171;SDS011;40076;52.354;4.970;2024-02-26T10:05:31;8.27;;;4.43;;
54171;SDS011;40076;52.354;4.970;2024-02-26T10:07:58;9.23;;;5.05;;
54171;SDS011;40076;52.354;4.970;2024-02-26T10:10:27;8.57;;;5.00;;
54171;SDS011;40076;52.354;4.970;2024-02-26T10:12:53;7.95;;;4.03;;
54171;SDS011;40076;52.354;4.970;2024-02-26T10:15:19;8.77;;;4.93;;
54171;SDS011;40076;52.354;4.970;2024-02-26T10:17:44;9.07;;;4.32;;
54171;SDS011;40076;52.354;4.970;2024-02-26T10:20:11;5.85;;;4.05;;
54171;SDS011;40076;52.354;4.970;2024-02-26T10:22:38;6.72;;;3.90;;
54171;SDS011;40076;52.354;4.970;2024-02-26T10:25:04;10.55;;;4.15;;
54171;SDS011;40076;52.354;4.970;2024-02-26T10:27:30;8.73;;;4.30;;
54171;SDS011;40076;52.354;4.970;2024-02-26T10:29:56;8.82;;;4.20;;
54171;SDS011;40076;52.354;4.970;2024-02-26T10:32:22;8.60;;;4.20;;
54171;SDS011;40076;52.354;4.970;2024-02-26T10:34:47;13.07;;;4.03;;
54171;SDS011;40076;52.354;4.970;2024-02-26T10:37:12;18.13;;;4.60;;
54171;SDS011;40076;52.354;4.970;2024-02-26T10:39:39;8.38;;;4.03;;
54171;SDS011;40076;52.354;4.970;2024-02-26T10:42:12;8.38;;;4.43;;
54171;SDS011;40076;52.354;4.970;2024-02-26T10:44:39;6.47;;;3.83;;
54171;SDS011;40076;52.354;4.970;2024-02-26T10:47:05;7.63;;;3.80;;
54171;SDS011;40076;52.354;4.970;2024-02-26T10:49:32;7.10;;;4.00;;
54171;SDS011;40076;52.354;4.970;2024-02-26T10:52:01;8.25;;;3.80;;
54171;SDS011;40076;52.354;4.970;2024-02-26T10:54:31;8.00;;;3.50;;
54171;SDS011;40076;52.354;4.970;2024-02-26T10:57:12;4.78;;;3.30;;
54171;SDS011;40076;52.354;4.970;2024-02-26T10:59:45;4.82;;;3.05;;
54171;SDS011;40076;52.354;4.970;2024-02-26T11:02:16;7.20;;;3.35;;
54171;SDS011;40076;52.354;4.970;2024-02-26T11:04:42;5.18;;;2.88;;
54171;SDS011;40076;52.354;4.970;2024-02-26T11:07:11;5.00;;;2.78;;
54171;SDS011;40076;52.354;4.970;2024-02-26T11:09:37;6.30;;;2.78;;
54171;SDS011;40076;52.354;4.970;2024-02-26T11:12:08;4.30;;;2.50;;
54171;SDS011;40076;52.354;4.970;2024-02-26T11:14:41;4.75;;;2.63;;
54171;SDS011;40076;52.354;4.970;2024-02-26T11:17:10;4.63;;;2.55;;
54171;SDS011;40076;52.354;4.970;2024-02-26T11:19:37;5.80;;;2.20;;
54171;SDS011;40076;52.354;4.970;2024-02-26T11:22:06;5.57;;;2.17;;
54171;SDS011;40076;52.354;4.970;2024-02-26T11:24:32;5.63;;;2.05;;
54171;SDS011;40076;52.354;4.970;2024-02-26T11:27:07;3.13;;;2.03;;
54171;SDS011;40076;52.354;4.970;2024-02-26T11:29:44;4.95;;;2.03;;
54171;SDS011;40076;52.354;4.970;2024-02-26T11:32:22;3.90;;;1.95;;
54171;SDS011;40076;52.354;4.970;2024-02-26T11:34:49;5.47;;;2.20;;
54171;SDS011;40076;52.354;4.970;2024-02-26T11:37:15;7.07;;;2.35;;
54171;SDS011;40076;52.354;4.970;2024-02-26T11:39:42;6.50;;;2.30;;
54171;SDS011;40076;52.354;4.970;2024-02-26T11:42:09;4.63;;;2.35;;
54171;SDS011;40076;52.354;4.970;2024-02-26T11:44:38;5.22;;;2.40;;
54171;SDS011;40076;52.354;4.970;2024-02-26T11:47:29;4.97;;;2.20;;
54171;SDS011;40076;52.354;4.970;2024-02-26T11:49:54;3.55;;;2.15;;
54171;SDS011;40076;52.354;4.970;2024-02-26T11:52:19;6.05;;;2.30;;
54171;SDS011;40076;52.354;4.970;2024-02-26T11:57:29;3.75;;;2.35;;
54171;SDS011;40076;52.354;4.970;2024-02-26T12:02:44;5.75;;;1.95;;
54171;SDS011;40076;52.354;4.970;2024-02-26T12:05:12;3.38;;;1.98;;
54171;SDS011;40076;52.354;4.970;2024-02-26T12:07:45;5.03;;;2.00;;
54171;SDS011;40076;52.354;4.970;2024-02-26T12:13:00;5.20;;;2.22;;
54171;SDS011;40076;52.354;4.970;2024-02-26T12:15:33;4.50;;;2.17;;
54171;SDS011;40076;52.354;4.970;2024-02-26T12:18:01;5.03;;;2.10;;
54171;SDS011;40076;52.354;4.970;2024-02-26T12:20:28;5.40;;;2.85;;
54171;SDS011;40076;52.354;4.970;2024-02-26T12:22:53;5.30;;;2.65;;
54171;SDS011;40076;52.354;4.970;2024-02-26T12:25:24;5.18;;;2.40;;
54171;SDS011;40076;52.354;4.970;2024-02-26T12:27:51;6.10;;;2.88;;
54171;SDS011;40076;52.354;4.970;2024-02-26T12:30:18;6.97;;;2.78;;
54171;SDS011;40076;52.354;4.970;2024-02-26T12:32:44;5.80;;;2.53;;
54171;SDS011;40076;52.354;4.970;2024-02-26T12:35:10;5.38;;;2.55;;
54171;SDS011;40076;52.354;4.970;2024-02-26T12:37:35;5.63;;;2.60;;
54171;SDS011;40076;52.354;4.970;2024-02-26T12:40:03;7.15;;;2.22;;
54171;SDS011;40076;52.354;4.970;2024-02-26T12:42:31;9.13;;;3.08;;
54171;SDS011;40076;52.354;4.970;2024-02-26T12:45:04;6.75;;;2.50;;
54171;SDS011;40076;52.354;4.970;2024-02-26T12:47:44;6.18;;;2.50;;
54171;SDS011;40076;52.354;4.970;2024-02-26T12:50:16;5.47;;;2.50;;
54171;SDS011;40076;52.354;4.970;2024-02-26T12:52:45;4.57;;;2.10;;
54171;SDS011;40076;52.354;4.970;2024-02-26T12:55:16;6.18;;;2.30;;
54171;SDS011;40076;52.354;4.970;2024-02-26T12:57:44;3.92;;;2.13;;
54171;SDS011;40076;52.354;4.970;2024-02-26T13:00:14;3.63;;;2.00;;
54171;SDS011;40076;52.354;4.970;2024-02-26T13:02:46;4.50;;;2.28;;
54171;SDS011;40076;52.354;4.970;2024-02-26T13:05:13;6.20;;;2.15;;
54171;SDS011;40076;52.354;4.970;2024-02-26T13:07:41;6.63;;;2.10;;
54171;SDS011;40076;52.354;4.970;2024-02-26T13:10:12;5.32;;;2.20;;
54171;SDS011;40076;52.354;4.970;2024-02-26T13:12:44;6.35;;;2.08;;
54171;SDS011;40076;52.354;4.970;2024-02-26T13:15:15;6.88;;;2.00;;
54171;SDS011;40076;52.354;4.970;2024-02-26T13:17:42;5.53;;;2.20;;
54171;SDS011;40076;52.354;4.970;2024-02-26T13:20:11;6.88;;;2.17;;
54171;SDS011;40076;52.354;4.970;2024-02-26T13:22:38;7.97;;;3.08;;
54171;SDS011;40076;52.354;4.970;2024-02-26T13:25:03;16.58;;;4.43;;
54171;SDS011;40076;52.354;4.970;2024-02-26T13:27:29;11.38;;;3.30;;
54171;SDS011;40076;52.354;4.970;2024-02-26T13:30:08;5.50;;;2.40;;
54171;SDS011;40076;52.354;4.970;2024-02-26T13:32:36;5.93;;;2.22;;
54171;SDS011;40076;52.354;4.970;2024-02-26T13:35:06;7.38;;;2.72;;
54171;SDS011;40076;52.354;4.970;2024-02-26T13:37:32;6.55;;;2.58;;
54171;SDS011;40076;52.354;4.970;2024-02-26T13:39:58;6.40;;;2.70;;
54171;SDS011;40076;52.354;4.970;2024-02-26T13:42:23;5.20;;;2.72;;
54171;SDS011;40076;52.354;4.970;2024-02-26T13:44:48;9.98;;;3.60;;
54171;SDS011;40076;52.354;4.970;2024-02-26T13:47:14;27.42;;;6.40;;
54171;SDS011;40076;52.354;4.970;2024-02-26T13:49:39;33.78;;;6.05;;
54171;SDS011;40076;52.354;4.970;2024-02-26T13:52:05;15.98;;;4.25;;
54171;SDS011;40076;52.354;4.970;2024-02-26T13:54:30;20.20;;;6.00;;
54171;SDS011;40076;52.354;4.970;2024-02-26T13:56:55;13.93;;;4.32;;
54171;SDS011;40076;52.354;4.970;2024-02-26T13:59:21;6.45;;;3.20;;
54171;SDS011;40076;52.354;4.970;2024-02-26T14:01:46;7.88;;;3.63;;
54171;SDS011;40076;52.354;4.970;2024-02-26T14:04:11;8.35;;;3.38;;
54171;SDS011;40076;52.354;4.970;2024-02-26T14:06:42;7.78;;;3.92;;
54171;SDS011;40076;52.354;4.970;2024-02-26T14:09:08;11.02;;;4.10;;
54171;SDS011;40076;52.354;4.970;2024-02-26T14:11:34;9.02;;;4.00;;
54171;SDS011;40076;52.354;4.970;2024-02-26T14:13:59;26.02;;;5.25;;
54171;SDS011;40076;52.354;4.970;2024-02-26T14:16:25;10.82;;;4.57;;
54171;SDS011;40076;52.354;4.970;2024-02-26T14:18:50;13.05;;;4.40;;
54171;SDS011;40076;52.354;4.970;2024-02-26T14:21:16;12.05;;;4.80;;
54171;SDS011;40076;52.354;4.970;2024-02-26T14:23:41;12.40;;;4.25;;
54171;SDS011;40076;52.354;4.970;2024-02-26T14:26:09;39.05;;;10.98;;
54171;SDS011;40076;52.354;4.970;2024-02-26T14:28:34;8.20;;;4.40;;
54171;SDS011;40076;52.354;4.970;2024-02-26T14:31:00;6.20;;;3.45;;
54171;SDS011;40076;52.354;4.970;2024-02-26T14:33:37;7.82;;;4.07;;
54171;SDS011;40076;52.354;4.970;2024-02-26T14:36:06;10.38;;;5.03;;
54171;SDS011;40076;52.354;4.970;2024-02-26T14:38:32;9.85;;;4.05;;
54171;SDS011;40076;52.354;4.970;2024-02-26T14:40:58;8.27;;;4.05;;
54171;SDS011;40076;52.354;4.970;2024-02-26T14:43:25;7.75;;;3.88;;